createdAt,value
2023-01-09T00:01:55.882Z,9.57
2023-01-09T00:04:22.339Z,9.93
2023-01-09T00:06:54.113Z,10.05
2023-01-09T00:09:22.229Z,10.63
2023-01-09T00:11:49.171Z,10.63
2023-01-09T00:14:19.197Z,9.95
2023-01-09T00:16:45.759Z,10.40
2023-01-09T00:19:12.270Z,11.48
2023-01-09T00:21:38.866Z,11.10
2023-01-09T00:24:05.931Z,11.07
2023-01-09T00:26:32.511Z,11.27
2023-01-09T00:28:59.124Z,11.63
2023-01-09T00:31:25.729Z,11.50
2023-01-09T00:33:57.834Z,11.95
2023-01-09T00:36:24.614Z,11.35
2023-01-09T00:38:51.420Z,11.48
2023-01-09T00:41:22.672Z,11.45
2023-01-09T00:43:53.262Z,12.50
2023-01-09T00:46:24.720Z,13.02
2023-01-09T00:48:51.476Z,12.18
2023-01-09T00:51:19.856Z,12.85
2023-01-09T00:53:47.841Z,13.32
2023-01-09T00:56:18.248Z,12.30
2023-01-09T00:58:45.916Z,13.30
2023-01-09T01:01:12.653Z,13.77
2023-01-09T01:03:39.676Z,13.45
2023-01-09T01:06:24.674Z,13.68
2023-01-09T01:08:51.233Z,12.95
2023-01-09T01:11:17.750Z,14.55
2023-01-09T01:13:44.311Z,13.27
2023-01-09T01:16:12.859Z,14.25
2023-01-09T01:18:40.170Z,12.90
2023-01-09T01:21:11.433Z,14.88
2023-01-09T01:23:38.104Z,14.57
2023-01-09T01:26:12.987Z,14.40
2023-01-09T01:28:40.050Z,13.65
2023-01-09T01:31:07.379Z,14.07
2023-01-09T01:33:34.625Z,14.45
2023-01-09T01:36:08.742Z,14.77
2023-01-09T01:38:36.239Z,15.50
2023-01-09T01:41:03.846Z,14.57
2023-01-09T01:43:54.301Z,15.40
2023-01-09T01:46:20.973Z,14.75
2023-01-09T01:48:56.418Z,15.20
2023-01-09T01:51:25.536Z,15.60
2023-01-09T01:53:55.761Z,14.80
2023-01-09T01:56:30.317Z,15.00
2023-01-09T01:59:27.921Z,15.45
2023-01-09T02:01:58.363Z,14.95
2023-01-09T02:04:25.176Z,15.75
2023-01-09T02:07:13.547Z,15.45
2023-01-09T02:09:44.481Z,15.00
2023-01-09T02:12:20.132Z,15.88
2023-01-09T02:14:48.507Z,17.08
2023-01-09T02:17:35.880Z,16.23
2023-01-09T02:20:39.223Z,16.45
2023-01-09T02:23:24.551Z,17.85
2023-01-09T02:26:27.336Z,16.83
2023-01-09T02:29:27.813Z,17.77
2023-01-09T02:32:13.099Z,18.00
2023-01-09T02:35:10.554Z,18.10
2023-01-09T02:37:44.628Z,17.83
2023-01-09T02:40:29.608Z,18.92
2023-01-09T02:42:58.939Z,19.13
2023-01-09T02:45:25.441Z,18.88
2023-01-09T02:47:52.041Z,19.90
2023-01-09T02:50:27.663Z,19.88
2023-01-09T02:53:11.206Z,19.95
2023-01-09T02:55:52.779Z,21.55
2023-01-09T02:58:50.362Z,19.25
2023-01-09T03:01:52.155Z,20.70
2023-01-09T03:04:39.498Z,19.35
2023-01-09T03:07:25.487Z,20.08
2023-01-09T03:09:57.360Z,19.75
2023-01-09T03:12:29.590Z,20.88
2023-01-09T03:14:59.396Z,20.55
2023-01-09T03:17:37.060Z,19.95
2023-01-09T03:20:06.651Z,21.08
2023-01-09T03:22:33.194Z,19.77
2023-01-09T03:24:59.682Z,19.42
2023-01-09T03:27:26.373Z,19.63
2023-01-09T03:29:53.428Z,21.40
2023-01-09T03:32:20.060Z,20.23
2023-01-09T03:34:46.534Z,21.08
2023-01-09T03:37:13.032Z,20.30
2023-01-09T03:39:39.580Z,20.08
2023-01-09T03:42:06.049Z,20.98
2023-01-09T03:44:32.509Z,20.60
2023-01-09T03:46:59.010Z,20.63
2023-01-09T03:49:25.608Z,21.38
2023-01-09T03:51:52.064Z,20.80
2023-01-09T03:54:18.480Z,20.67
2023-01-09T03:56:44.952Z,21.30
2023-01-09T03:59:11.587Z,20.77
2023-01-09T04:01:38.215Z,20.45
2023-01-09T04:04:04.900Z,20.55
2023-01-09T04:06:31.398Z,22.23
2023-01-09T04:08:57.873Z,20.42
2023-01-09T04:11:24.321Z,20.67
2023-01-09T04:13:50.963Z,20.00
2023-01-09T04:16:17.604Z,21.10
2023-01-09T04:18:44.112Z,22.10
2023-01-09T04:21:10.693Z,20.33
2023-01-09T04:23:37.192Z,22.58
2023-01-09T04:26:03.699Z,19.83
2023-01-09T04:28:30.291Z,21.63
2023-01-09T04:30:56.790Z,21.27
2023-01-09T04:33:23.365Z,20.88
2023-01-09T04:35:49.817Z,21.33
2023-01-09T04:38:16.263Z,20.83
2023-01-09T04:40:42.704Z,21.17
2023-01-09T04:43:09.280Z,22.17
2023-01-09T04:45:35.758Z,21.02
2023-01-09T04:48:02.909Z,20.30
2023-01-09T04:50:31.287Z,21.30
2023-01-09T04:52:58.252Z,21.02
2023-01-09T04:55:24.728Z,21.05
2023-01-09T04:57:51.221Z,21.80
2023-01-09T05:00:17.836Z,21.23
2023-01-09T05:02:44.342Z,20.73
2023-01-09T05:05:11.872Z,21.27
2023-01-09T05:07:39.061Z,22.17
2023-01-09T05:10:06.762Z,20.90
2023-01-09T05:12:36.143Z,21.40
2023-01-09T05:15:07.169Z,23.00
2023-01-09T05:17:33.624Z,21.42
2023-01-09T05:20:02.819Z,21.98
2023-01-09T05:22:29.335Z,22.58
2023-01-09T05:24:56.176Z,22.20
2023-01-09T05:27:22.966Z,22.60
2023-01-09T05:29:49.501Z,20.13
2023-01-09T05:32:16.049Z,22.80
2023-01-09T05:34:42.581Z,20.98
2023-01-09T05:37:09.047Z,21.60
2023-01-09T05:39:35.584Z,22.48
2023-01-09T05:42:02.144Z,23.40
2023-01-09T05:44:28.642Z,24.05
2023-01-09T05:46:55.089Z,22.27
2023-01-09T05:49:21.631Z,23.42
2023-01-09T05:51:48.068Z,22.92
2023-01-09T05:54:14.501Z,23.45
2023-01-09T05:56:42.626Z,23.75
2023-01-09T05:59:09.133Z,24.00
2023-01-09T06:01:35.777Z,26.15
2023-01-09T06:04:02.415Z,25.65
2023-01-09T06:06:28.863Z,25.15
2023-01-09T06:08:55.394Z,25.42
2023-01-09T06:11:21.887Z,26.23
2023-01-09T06:13:48.393Z,26.02
2023-01-09T06:16:14.931Z,26.35
2023-01-09T06:18:41.492Z,26.10
2023-01-09T06:21:08.067Z,28.08
2023-01-09T06:23:34.548Z,27.50
2023-01-09T06:26:01.018Z,27.17
2023-01-09T06:28:27.482Z,26.98
2023-01-09T06:30:54.006Z,27.05
2023-01-09T06:33:20.714Z,27.17
2023-01-09T06:35:47.325Z,27.83
2023-01-09T06:38:13.830Z,29.52
2023-01-09T06:40:40.327Z,28.48
2023-01-09T06:43:06.844Z,28.35
2023-01-09T06:45:33.456Z,28.33
2023-01-09T06:47:59.952Z,29.02
2023-01-09T06:50:26.450Z,29.83
2023-01-09T06:52:52.915Z,29.58
2023-01-09T06:55:19.668Z,29.35
2023-01-09T06:57:46.138Z,28.88
2023-01-09T07:00:12.967Z,29.75
2023-01-09T07:02:39.392Z,29.50
2023-01-09T07:05:08.125Z,28.52
2023-01-09T07:07:34.974Z,29.90
2023-01-09T07:10:01.449Z,29.73
2023-01-09T07:12:28.023Z,30.88
2023-01-09T07:14:56.209Z,31.77
2023-01-09T07:17:24.092Z,31.55
2023-01-09T07:19:50.513Z,30.13
2023-01-09T07:22:23.681Z,30.70
2023-01-09T07:24:50.285Z,30.73
2023-01-09T07:27:16.788Z,30.77
2023-01-09T07:29:43.433Z,30.85
2023-01-09T07:32:10.315Z,31.60
2023-01-09T07:34:36.873Z,29.52
2023-01-09T07:37:03.528Z,30.63
2023-01-09T07:39:30.008Z,31.38
2023-01-09T07:41:56.610Z,29.20
2023-01-09T07:44:26.308Z,29.90
2023-01-09T07:46:52.801Z,31.10
2023-01-09T07:49:19.962Z,28.15
2023-01-09T07:51:48.295Z,30.38
2023-01-09T07:54:14.925Z,29.70
2023-01-09T07:56:41.580Z,28.20
2023-01-09T07:59:08.209Z,28.55
2023-01-09T08:01:34.915Z,29.85
2023-01-09T08:04:01.873Z,28.77
2023-01-09T08:06:28.420Z,28.48
2023-01-09T08:08:54.957Z,30.30
2023-01-09T08:11:21.578Z,28.95
2023-01-09T08:13:48.056Z,29.73
2023-01-09T08:16:15.078Z,28.17
2023-01-09T08:18:41.831Z,29.83
2023-01-09T08:21:08.418Z,29.45
2023-01-09T08:23:34.926Z,29.15
2023-01-09T08:26:01.535Z,28.42
2023-01-09T08:28:27.985Z,28.20
2023-01-09T08:30:56.382Z,28.67
2023-01-09T08:33:23.184Z,28.38
2023-01-09T08:35:49.844Z,29.30
2023-01-09T08:38:16.541Z,27.73
2023-01-09T08:40:43.166Z,27.85
2023-01-09T08:43:28.528Z,28.05
2023-01-09T08:46:13.771Z,27.42
2023-01-09T08:48:40.367Z,28.30
2023-01-09T08:51:06.915Z,29.27
2023-01-09T08:53:33.426Z,27.75
2023-01-09T08:56:00.125Z,26.63
2023-01-09T08:58:26.836Z,28.23
2023-01-09T09:00:56.020Z,26.65
2023-01-09T09:03:22.811Z,28.08
2023-01-09T09:05:49.387Z,29.27
2023-01-09T09:08:17.483Z,27.67
2023-01-09T09:10:44.025Z,26.75
2023-01-09T09:13:10.587Z,28.75
2023-01-09T09:15:40.173Z,26.45
2023-01-09T09:18:11.706Z,26.88
2023-01-09T09:20:39.049Z,27.40
2023-01-09T09:23:08.253Z,27.20
2023-01-09T09:25:35.502Z,28.27
2023-01-09T09:28:02.076Z,26.63
2023-01-09T09:30:28.820Z,24.20
2023-01-09T09:32:55.706Z,26.20
2023-01-09T09:35:23.059Z,25.80
2023-01-09T09:37:58.039Z,26.83
2023-01-09T09:40:40.937Z,22.40
2023-01-09T09:43:43.344Z,22.92
2023-01-09T09:46:20.431Z,23.38
2023-01-09T09:48:56.018Z,22.38
2023-01-09T09:51:40.368Z,22.88
2023-01-09T09:54:27.216Z,23.15
2023-01-09T09:56:58.020Z,22.52
2023-01-09T09:59:33.272Z,21.92
2023-01-09T10:02:10.171Z,22.05
2023-01-09T10:04:48.378Z,20.25
2023-01-09T10:07:22.556Z,20.75
2023-01-09T10:09:54.395Z,20.63
2023-01-09T10:12:29.872Z,18.45
2023-01-09T10:14:58.843Z,17.83
2023-01-09T10:17:28.243Z,17.83
2023-01-09T10:20:07.422Z,16.50
2023-01-09T10:22:53.403Z,17.10
2023-01-09T10:25:25.535Z,15.50
2023-01-09T10:28:31.643Z,15.45
2023-01-09T10:31:10.395Z,15.30
2023-01-09T10:34:04.253Z,16.10
2023-01-09T10:36:36.766Z,14.52
2023-01-09T10:39:10.520Z,15.85
2023-01-09T10:42:02.152Z,14.18
2023-01-09T10:44:37.659Z,14.07
2023-01-09T10:47:13.670Z,13.73
2023-01-09T10:49:40.664Z,15.07
2023-01-09T10:52:14.818Z,13.38
2023-01-09T10:54:49.475Z,14.07
2023-01-09T10:57:30.281Z,13.02
2023-01-09T10:59:56.992Z,11.80
2023-01-09T11:02:31.462Z,11.63
2023-01-09T11:04:58.101Z,11.57
2023-01-09T11:07:32.914Z,11.60
2023-01-09T11:10:09.663Z,10.68
2023-01-09T11:12:36.750Z,10.50
2023-01-09T11:15:21.093Z,10.18
2023-01-09T11:17:50.529Z,9.65
2023-01-09T11:20:28.428Z,9.93
2023-01-09T11:22:57.553Z,8.68
2023-01-09T11:25:26.589Z,7.70
2023-01-09T11:28:01.929Z,8.25
2023-01-09T11:30:30.411Z,7.85
2023-01-09T11:32:58.719Z,7.80
2023-01-09T11:35:33.766Z,7.75
2023-01-09T11:38:14.986Z,7.28
2023-01-09T11:40:46.500Z,7.32
2023-01-09T11:43:18.662Z,7.05
2023-01-09T11:46:01.436Z,6.95
2023-01-09T11:48:48.644Z,7.07
2023-01-09T11:51:21.768Z,6.60
2023-01-09T11:53:55.998Z,6.05
2023-01-09T11:56:22.752Z,5.70
2023-01-09T11:58:49.352Z,5.15
2023-01-09T12:01:25.165Z,6.03
2023-01-09T12:04:10.096Z,4.40
2023-01-09T12:06:39.632Z,3.72
2023-01-09T12:09:20.169Z,3.33
2023-01-09T12:12:17.612Z,3.80
2023-01-09T12:15:03.461Z,3.50
2023-01-09T12:17:42.932Z,3.22
2023-01-09T12:20:20.453Z,2.63
2023-01-09T12:23:01.927Z,3.38
2023-01-09T12:25:50.305Z,2.88
2023-01-09T12:28:35.424Z,4.07
2023-01-09T12:31:04.878Z,4.68
2023-01-09T12:33:57.960Z,3.92
2023-01-09T12:36:29.761Z,3.55
2023-01-09T12:39:22.568Z,2.85
2023-01-09T12:42:07.904Z,3.22
2023-01-09T12:44:37.033Z,3.08
2023-01-09T12:47:17.239Z,2.78
2023-01-09T12:50:09.885Z,2.90
2023-01-09T12:52:41.932Z,2.42
2023-01-09T12:55:33.252Z,2.30
2023-01-09T12:58:07.825Z,2.55
2023-01-09T13:00:39.991Z,1.98
2023-01-09T13:03:18.437Z,2.80
2023-01-09T13:05:53.634Z,3.33
2023-01-09T13:08:41.729Z,7.47
2023-01-09T13:11:20.011Z,9.57
2023-01-09T13:13:52.904Z,5.05
2023-01-09T13:16:27.021Z,4.78
2023-01-09T13:19:03.524Z,3.78
2023-01-09T13:21:30.792Z,4.22
2023-01-09T13:24:16.271Z,2.80
2023-01-09T13:26:45.536Z,2.00
2023-01-09T13:29:29.916Z,1.98
2023-01-09T13:32:08.476Z,1.90
2023-01-09T13:34:37.280Z,2.42
2023-01-09T13:37:04.644Z,2.60
2023-01-09T13:39:33.557Z,2.17
2023-01-09T13:42:21.698Z,2.75
2023-01-09T13:44:50.709Z,2.55
2023-01-09T13:47:22.033Z,2.60
2023-01-09T13:49:48.405Z,2.70
2023-01-09T13:52:38.814Z,2.40
2023-01-09T13:55:11.207Z,2.22
2023-01-09T13:57:42.297Z,2.40
2023-01-09T14:00:14.982Z,1.90
2023-01-09T14:02:42.279Z,2.50
2023-01-09T14:05:36.219Z,2.28
2023-01-09T14:08:16.127Z,2.58
2023-01-09T14:10:52.187Z,2.30
2023-01-09T14:13:23.017Z,2.15
2023-01-09T14:15:51.969Z,2.20
2023-01-09T14:18:37.089Z,2.42
2023-01-09T14:23:52.573Z,2.17
2023-01-09T14:26:46.591Z,2.05
2023-01-09T14:29:31.134Z,2.25
2023-01-09T14:32:22.391Z,2.05
2023-01-09T14:34:53.859Z,1.60
2023-01-09T14:37:20.924Z,1.90
2023-01-09T14:39:50.471Z,2.55
2023-01-09T14:42:24.137Z,2.95
2023-01-09T14:44:55.495Z,2.45
2023-01-09T14:47:30.985Z,2.45
2023-01-09T14:50:25.421Z,2.50
2023-01-09T14:52:59.423Z,2.25
2023-01-09T14:55:44.132Z,2.65
2023-01-09T14:58:31.762Z,2.05
2023-01-09T15:01:10.501Z,2.20
2023-01-09T15:03:49.416Z,2.10
2023-01-09T15:06:20.790Z,3.13
2023-01-09T15:08:57.049Z,2.22
2023-01-09T15:11:24.369Z,2.33
2023-01-09T15:13:53.330Z,2.30
2023-01-09T15:16:22.320Z,2.40
2023-01-09T15:18:52.177Z,2.53
2023-01-09T15:21:23.243Z,2.63
2023-01-09T15:23:50.069Z,2.70
2023-01-09T15:26:26.179Z,3.17
2023-01-09T15:28:54.442Z,2.70
2023-01-09T15:31:24.110Z,2.97
2023-01-09T15:33:53.828Z,2.65
2023-01-09T15:36:26.293Z,2.92
2023-01-09T15:38:54.152Z,1.95
2023-01-09T15:41:49.098Z,3.30
2023-01-09T15:44:26.330Z,2.85
2023-01-09T15:46:58.697Z,2.60
2023-01-09T15:49:25.818Z,2.97
2023-01-09T15:51:53.775Z,2.40
2023-01-09T15:54:28.719Z,2.30
2023-01-09T15:56:55.297Z,2.88
2023-01-09T15:59:24.700Z,2.97
2023-01-09T16:02:19.593Z,2.90
2023-01-09T16:04:47.629Z,2.55
2023-01-09T16:07:16.883Z,2.80
2023-01-09T16:09:48.336Z,2.20
2023-01-09T16:12:20.364Z,2.28
2023-01-09T16:14:52.522Z,2.83
2023-01-09T16:17:23.793Z,2.63
2023-01-09T16:19:58.898Z,2.60
2023-01-09T16:22:30.594Z,2.45
2023-01-09T16:25:23.093Z,2.67
2023-01-09T16:28:30.603Z,2.53
2023-01-09T16:31:01.871Z,2.20
2023-01-09T16:33:30.561Z,2.28
2023-01-09T16:36:00.639Z,1.92
2023-01-09T16:38:27.750Z,1.95
2023-01-09T16:41:26.619Z,1.95
2023-01-09T16:43:53.196Z,2.35
2023-01-09T16:46:21.299Z,2.17
2023-01-09T16:48:48.282Z,1.90
2023-01-09T16:51:17.655Z,2.00
2023-01-09T16:53:44.868Z,2.05
2023-01-09T16:56:18.586Z,2.17
2023-01-09T16:58:46.229Z,1.92
2023-01-09T17:01:15.092Z,2.08
2023-01-09T17:03:44.057Z,1.70
2023-01-09T17:06:19.999Z,2.47
2023-01-09T17:09:46.204Z,2.08
2023-01-09T17:12:20.638Z,2.00
2023-01-09T17:14:47.658Z,2.97
2023-01-09T17:17:14.942Z,3.35
2023-01-09T17:19:41.833Z,2.63
2023-01-09T17:22:08.678Z,2.42
2023-01-09T17:24:54.112Z,2.67
2023-01-09T17:27:44.881Z,1.98
2023-01-09T17:30:18.868Z,1.90
2023-01-09T17:32:45.932Z,1.70
2023-01-09T17:35:13.454Z,1.67
2023-01-09T17:37:39.945Z,1.90
2023-01-09T17:40:20.649Z,1.67
2023-01-09T17:42:47.152Z,2.10
2023-01-09T17:45:14.286Z,3.97
2023-01-09T17:47:40.952Z,3.40
2023-01-09T17:50:14.348Z,4.72
2023-01-09T17:52:41.054Z,3.92
2023-01-09T17:55:08.313Z,3.45
2023-01-09T17:57:35.114Z,3.78
2023-01-09T18:00:01.682Z,2.50
2023-01-09T18:02:28.241Z,3.42
2023-01-09T18:04:54.767Z,2.15
2023-01-09T18:07:21.286Z,1.90
2023-01-09T18:09:47.839Z,1.90
2023-01-09T18:12:14.426Z,1.80
2023-01-09T18:14:42.062Z,1.98
2023-01-09T18:17:11.849Z,2.00
2023-01-09T18:19:38.447Z,1.80
2023-01-09T18:22:04.878Z,2.28
2023-01-09T18:24:31.354Z,1.40
2023-01-09T18:26:57.834Z,1.67
2023-01-09T18:29:24.380Z,1.90
2023-01-09T18:31:51.753Z,1.60
2023-01-09T18:34:18.299Z,1.95
2023-01-09T18:36:45.056Z,1.45
2023-01-09T18:39:11.656Z,2.08
2023-01-09T18:41:38.325Z,1.83
2023-01-09T18:44:04.848Z,1.63
2023-01-09T18:46:32.292Z,1.58
2023-01-09T18:49:04.318Z,1.75
2023-01-09T18:51:32.339Z,1.75
2023-01-09T18:53:58.848Z,1.95
2023-01-09T18:56:25.566Z,1.70
2023-01-09T18:58:57.100Z,1.88
2023-01-09T19:03:50.835Z,2.33
2023-01-09T19:06:17.350Z,2.22
2023-01-09T19:08:44.089Z,1.75
2023-01-09T19:11:10.570Z,1.90
2023-01-09T19:13:37.500Z,1.55
2023-01-09T19:16:06.807Z,1.80
2023-01-09T19:18:39.499Z,2.38
2023-01-09T19:21:20.461Z,2.15
2023-01-09T19:23:47.787Z,2.00
2023-01-09T19:26:20.784Z,1.98
2023-01-09T19:28:48.087Z,2.50
2023-01-09T19:31:15.062Z,1.58
2023-01-09T19:33:41.771Z,1.60
2023-01-09T19:36:08.806Z,1.52
2023-01-09T19:38:35.553Z,1.70
2023-01-09T19:41:12.609Z,1.70
2023-01-09T19:43:40.541Z,1.67
2023-01-09T19:46:09.356Z,1.75
2023-01-09T19:48:36.324Z,1.73
2023-01-09T19:51:07.523Z,1.58
2023-01-09T19:53:35.138Z,2.08
2023-01-09T19:56:07.686Z,1.88
2023-01-09T19:58:34.166Z,2.22
2023-01-09T20:01:12.704Z,2.00
2023-01-09T20:03:47.659Z,2.20
2023-01-09T20:06:19.271Z,1.58
2023-01-09T20:11:16.274Z,1.60
2023-01-09T20:13:43.130Z,1.70
2023-01-09T20:16:15.044Z,1.88
2023-01-09T20:18:41.499Z,1.58
2023-01-09T20:21:07.995Z,1.70
2023-01-09T20:23:34.612Z,1.88
2023-01-09T20:26:01.957Z,1.90
2023-01-09T20:28:28.460Z,1.60
2023-01-09T20:30:55.176Z,2.20
2023-01-09T20:33:22.217Z,1.98
2023-01-09T20:35:49.006Z,1.90
2023-01-09T20:38:15.549Z,1.92
2023-01-09T20:40:44.949Z,2.35
2023-01-09T20:43:12.832Z,1.58
2023-01-09T20:45:40.710Z,2.10
2023-01-09T20:48:08.311Z,1.75
2023-01-09T20:50:35.043Z,1.80
2023-01-09T20:53:01.538Z,1.70
2023-01-09T20:55:28.052Z,1.48
2023-01-09T20:57:54.485Z,1.60
2023-01-09T21:00:21.648Z,1.70
2023-01-09T21:02:48.140Z,1.60
2023-01-09T21:05:14.721Z,1.65
2023-01-09T21:07:41.288Z,2.42
2023-01-09T21:10:08.343Z,2.38
2023-01-09T21:12:34.880Z,1.77
2023-01-09T21:15:04.464Z,2.50
2023-01-09T21:17:38.126Z,1.88
2023-01-09T21:20:07.356Z,1.50
2023-01-09T21:22:35.114Z,1.83
2023-01-09T21:25:02.218Z,1.45
2023-01-09T21:27:38.375Z,1.67
2023-01-09T21:30:06.316Z,1.08
2023-01-09T21:32:32.966Z,1.42
2023-01-09T21:35:04.296Z,1.40
2023-01-09T21:37:33.244Z,1.50
2023-01-09T21:40:00.532Z,1.50
2023-01-09T21:42:46.682Z,1.73
2023-01-09T21:45:35.180Z,1.63
2023-01-09T21:48:04.172Z,1.90
2023-01-09T21:50:30.637Z,1.45
2023-01-09T21:52:57.130Z,1.40
2023-01-09T21:55:23.664Z,1.70
2023-01-09T21:57:55.067Z,1.63
2023-01-09T22:00:21.965Z,1.90
2023-01-09T22:02:48.434Z,2.30
2023-01-09T22:05:14.915Z,1.80
2023-01-09T22:07:41.401Z,1.98
2023-01-09T22:10:08.899Z,1.90
2023-01-09T22:12:35.361Z,1.60
2023-01-09T22:15:02.019Z,2.25
2023-01-09T22:17:30.036Z,1.50
2023-01-09T22:19:56.585Z,1.52
2023-01-09T22:22:23.073Z,1.60
2023-01-09T22:24:50.296Z,1.60
2023-01-09T22:27:16.911Z,1.55
2023-01-09T22:29:43.371Z,1.70
2023-01-09T22:32:09.809Z,2.03
2023-01-09T22:34:36.262Z,1.92
2023-01-09T22:37:02.961Z,1.92
2023-01-09T22:39:29.650Z,1.90
2023-01-09T22:41:56.160Z,1.55
2023-01-09T22:44:22.647Z,1.85
2023-01-09T22:46:49.105Z,1.63
2023-01-09T22:49:15.563Z,2.55
2023-01-09T22:51:42.042Z,1.52
2023-01-09T22:54:08.542Z,1.80
2023-01-09T22:56:35.174Z,1.52
2023-01-09T22:59:01.704Z,1.73
2023-01-09T23:01:28.392Z,1.90
2023-01-09T23:03:54.885Z,2.03
2023-01-09T23:06:23.116Z,1.98
2023-01-09T23:08:50.953Z,2.03
2023-01-09T23:11:41.658Z,1.70
2023-01-09T23:14:08.153Z,1.80
2023-01-09T23:16:34.681Z,1.95
2023-01-09T23:19:01.301Z,2.20
2023-01-09T23:21:27.738Z,2.08
2023-01-09T23:23:54.206Z,2.60
2023-01-09T23:26:20.802Z,2.10
2023-01-09T23:28:47.253Z,2.38
2023-01-09T23:31:13.812Z,2.10
2023-01-09T23:33:40.337Z,1.85
2023-01-09T23:36:06.945Z,2.00
2023-01-09T23:38:33.501Z,2.33
2023-01-09T23:40:59.924Z,1.90
2023-01-09T23:43:26.364Z,2.40
2023-01-09T23:45:53.012Z,2.25
2023-01-09T23:48:19.909Z,2.15
2023-01-09T23:50:51.389Z,2.30
2023-01-09T23:53:19.221Z,3.92
2023-01-09T23:55:46.060Z,2.65
2023-01-09T23:58:12.562Z,2.28
